Time;durP1;ratioP1;P1;durP2;ratioP2;P2;SDS_P1;SDS_P2;PMS_P1;PMS_P2;Temp;Humidity;BMP_temperature;BMP_pressure;BME280_temperature;BME280_humidity;BME280_pressure;Samples;Min_cycle;Max_cycle;Signal;HPM_P1;HPM_P2
2023/03/16 07:11:44;;;;;;;20.12;8.23;;;;;;;6.74;68.80;100708.39;1708429;77;25627;-50
2023/03/16 07:14:11;;;;;;;22.25;9.68;;;;;;;7.01;68.82;100717.45;1671198;84;25539;-53
2023/03/16 07:16:37;;;;;;;21.05;9.33;;;;;;;7.16;68.47;100723.88;1701380;84;25421;-53
2023/03/16 07:19:05;;;;;;;20.60;8.85;;;;;;;7.43;69.04;100719.45;1701070;84;27974;-49
2023/03/16 07:21:39;;;;;;;19.82;9.58;;;;;;;7.73;67.92;100717.12;1700795;84;25453;-49
2023/03/16 07:24:01;;;;;;;20.40;10.55;;;;;;;7.91;66.43;100722.92;1670476;84;25539;-50
2023/03/16 07:26:31;;;;;;;23.65;8.93;;;;;;;7.97;65.37;100725.30;1694742;84;25537;-51
2023/03/16 07:28:59;;;;;;;19.20;8.98;;;;;;;8.11;65.08;100732.76;1701241;84;25437;-49
2023/03/16 07:34:08;;;;;;;21.15;8.90;;;;;;;8.68;64.59;100739.27;1905507;74;34661;-50
2023/03/16 07:36:35;;;;;;;74.97;68.92;;;;;;;8.87;64.52;100727.75;1859946;77;25602;-50
2023/03/16 07:39:05;;;;;;;86.75;79.82;;;;;;;9.25;63.88;100730.02;1859947;76;26308;-50
2023/03/16 07:41:33;;;;;;;83.12;77.08;;;;;;;9.47;62.69;100733.52;1860002;76;25565;-50
2023/03/16 07:44:00;;;;;;;83.67;77.20;;;;;;;9.57;60.97;100731.23;1859865;76;25462;-50
2023/03/16 07:46:27;;;;;;;86.70;79.80;;;;;;;9.73;61.23;100728.55;1859598;76;25634;-51
2023/03/16 07:48:54;;;;;;;85.83;79.17;;;;;;;10.13;60.90;100733.65;1859164;76;25816;-50
2023/03/16 07:51:21;;;;;;;82.78;76.65;;;;;;;10.29;59.72;100729.58;1859599;76;27978;-51
2023/03/16 07:53:49;;;;;;;54.75;50.48;;;;;;;9.60;60.12;100556.42;1859928;76;25476;-51
2023/03/16 07:56:17;;;;;;;57.03;52.88;;;;;;;11.02;59.02;100726.41;1859879;76;25570;-50
2023/03/16 07:58:45;;;;;;;17.57;8.70;;;;;;;11.32;58.03;100732.30;1859843;77;26258;-48
2023/03/16 08:01:13;;;;;;;84.92;78.55;;;;;;;11.58;57.25;100728.50;1859946;76;25465;-51
2023/03/16 08:03:39;;;;;;;82.33;76.12;;;;;;;11.68;55.46;100728.27;1859900;76;27995;-51
2023/03/16 08:06:07;;;;;;;83.17;77.03;;;;;;;11.83;55.25;100724.95;1856178;77;25583;-50
2023/03/16 08:08:35;;;;;;;84.15;77.78;;;;;;;12.19;55.42;100729.55;1859893;76;25541;-49
2023/03/16 08:11:02;;;;;;;77.45;71.75;;;;;;;12.47;54.21;100730.21;1859824;76;25689;-49
2023/03/16 08:13:30;;;;;;;83.90;77.58;;;;;;;12.68;52.98;100720.44;1859895;76;25524;-50
2023/03/16 08:16:00;;;;;;;80.75;74.60;;;;;;;12.89;53.50;100733.45;1860033;77;27971;-56
2023/03/16 08:18:29;;;;;;;13.48;7.92;;;;;;;12.92;50.87;100742.87;1859597;77;25644;-54
2023/03/16 08:20:57;;;;;;;14.13;6.28;;;;;;;12.86;50.20;100747.08;1859139;77;25552;-54
2023/03/16 08:23:25;;;;;;;15.00;6.62;;;;;;;12.96;50.36;100752.01;1859843;77;25387;-58
2023/03/16 08:25:57;;;;;;;17.85;8.05;;;;;;;13.13;49.61;100748.52;1839085;77;25581;-58
2023/03/16 08:28:24;;;;;;;15.32;7.80;;;;;;;13.23;49.11;100752.34;1859886;76;27456;-58
2023/03/16 08:30:54;;;;;;;15.58;8.10;;;;;;;13.01;47.39;100754.02;1859785;76;25631;-62
2023/03/16 08:33:23;;;;;;;18.42;9.00;;;;;;;12.86;48.13;100749.80;1837714;77;26209;-60
2023/03/16 08:35:49;;;;;;;20.23;9.13;;;;;;;12.94;48.75;100757.75;1859874;76;25597;-64
2023/03/16 08:38:17;;;;;;;17.65;9.43;;;;;;;13.20;49.43;100752.39;1859904;77;25565;-63
2023/03/16 08:40:47;;;;;;;16.40;8.33;;;;;;;13.75;49.19;100754.36;1859893;77;27650;-63
2023/03/16 08:43:18;;;;;;;16.87;8.97;;;;;;;14.11;49.04;100755.95;1860013;76;27124;-62
2023/03/16 08:45:45;;;;;;;13.43;8.20;;;;;;;14.62;48.02;100758.94;1859257;76;25497;-62
2023/03/16 08:48:13;;;;;;;15.95;7.33;;;;;;;14.73;46.29;100758.27;1859203;76;25501;-62
2023/03/16 08:50:42;;;;;;;15.88;7.40;;;;;;;15.01;46.70;100754.31;1859309;76;25546;-63
2023/03/16 08:53:12;;;;;;;10.35;6.92;;;;;;;15.13;45.21;100755.20;1837770;77;28668;-62
2023/03/16 08:55:40;;;;;;;17.65;7.58;;;;;;;15.27;45.20;100756.89;1859192;76;25603;-62
2023/03/16 08:58:10;;;;;;;13.98;6.40;;;;;;;15.55;45.01;100761.30;1859389;77;25545;-62
2023/03/16 09:00:37;;;;;;;11.47;6.20;;;;;;;15.55;44.21;100764.61;1859470;77;25588;-65
2023/03/16 09:03:05;;;;;;;10.70;6.45;;;;;;;15.75;43.97;100760.27;1859324;76;25367;-65
2023/03/16 09:05:32;;;;;;;15.15;7.20;;;;;;;15.84;43.61;100761.84;1859247;77;27965;-64
2023/03/16 09:08:00;;;;;;;12.88;6.95;;;;;;;15.71;42.72;100764.80;1837763;77;25446;-64
2023/03/16 09:10:28;;;;;;;19.23;7.75;;;;;;;15.53;42.28;100773.11;1859458;76;25541;-64
2023/03/16 09:12:56;;;;;;;13.18;7.45;;;;;;;15.68;42.35;100764.34;1859224;76;26940;-64
2023/03/16 09:15:23;;;;;;;12.95;6.12;;;;;;;15.30;41.80;100772.02;1859283;77;25679;-64
2023/03/16 09:17:50;;;;;;;9.83;5.70;;;;;;;15.20;41.93;100777.84;1855539;77;28751;-63
2023/03/16 09:20:18;;;;;;;10.70;5.67;;;;;;;15.02;40.38;100783.16;1859179;76;25688;-64
2023/03/16 09:22:44;;;;;;;7.45;4.70;;;;;;;14.41;40.84;100777.86;1838014;77;25586;-63
2023/03/16 09:25:13;;;;;;;8.90;4.50;;;;;;;13.85;40.76;100783.16;1859194;76;25434;-63
2023/03/16 09:27:41;;;;;;;10.97;5.60;;;;;;;13.65;40.27;100782.64;1859611;76;25477;-63
2023/03/16 09:30:12;;;;;;;9.15;5.70;;;;;;;13.44;40.43;100771.58;1859371;76;26026;-63
2023/03/16 09:32:38;;;;;;;9.50;6.08;;;;;;;13.47;40.93;100785.08;1837752;77;25650;-63
2023/03/16 09:35:06;;;;;;;10.95;6.08;;;;;;;13.27;40.36;100785.33;1859237;77;25513;-63
2023/03/16 09:37:34;;;;;;;10.82;6.45;;;;;;;13.07;40.97;100777.18;1859149;76;25929;-50
2023/03/16 09:40:00;;;;;;;11.30;5.67;;;;;;;13.08;41.11;100772.57;1859259;77;25577;-62
2023/03/16 09:42:38;;;;;;;10.55;4.95;;;;;;;12.55;40.47;100782.37;1859221;77;28041;-61
2023/03/16 09:45:23;;;;;;;12.68;5.70;;;;;;;11.90;40.50;100781.71;1857282;76;25680;-63
2023/03/16 09:47:55;;;;;;;8.40;5.15;;;;;;;11.38;41.43;100782.55;1859242;76;25521;-62
2023/03/16 09:50:30;;;;;;;13.98;5.67;;;;;;;10.99;41.12;100777.88;1859209;76;25376;-63
2023/03/16 09:53:18;;;;;;;10.15;5.60;;;;;;;10.55;42.17;100790.02;1859120;76;25532;-63
2023/03/16 09:55:52;;;;;;;8.23;4.92;;;;;;;10.21;42.78;100786.22;1859174;76;25932;-65
2023/03/16 09:58:21;;;;;;;13.55;4.58;;;;;;;9.95;43.12;100788.52;1857214;76;25599;-63
2023/03/16 10:01:19;;;;;;;10.98;4.50;;;;;;;9.56;43.32;100786.88;1859266;77;25414;-63
2023/03/16 10:04:05;;;;;;;8.85;5.08;;;;;;;9.27;43.98;100787.77;1837948;77;25990;-60
2023/03/16 10:06:40;;;;;;;10.90;4.95;;;;;;;9.63;47.60;100791.38;1859291;76;25455;-62
2023/03/16 10:09:25;;;;;;;8.03;5.03;;;;;;;10.37;46.75;100788.16;1858983;76;27900;-63
2023/03/16 10:11:58;;;;;;;6.97;3.50;;;;;;;11.20;45.79;100787.78;1859159;76;25523;-64
2023/03/16 10:14:34;;;;;;;6.62;4.30;;;;;;;11.45;44.46;100789.72;1859189;76;25611;-62
2023/03/16 10:17:10;;;;;;;13.55;7.00;;;;;;;11.50;43.70;100793.67;1859182;76;25505;-62
2023/03/16 10:20:07;;;;;;;15.32;7.03;;;;;;;11.11;42.83;100798.25;1859228;76;25566;-64
2023/03/16 10:22:36;;;;;;;8.05;5.70;;;;;;;10.60;42.92;100799.41;1858772;76;27888;-62
2023/03/16 10:25:36;;;;;;;12.20;6.08;;;;;;;10.29;43.61;100799.08;1859014;76;25522;-62
2023/03/16 10:28:04;;;;;;;;;;;;;;;10.02;43.59;100804.61;1861810;76;25550;-62
2023/03/16 10:30:36;;;;;;;10.72;4.65;;;;;;;10.34;45.33;100799.03;1859165;76;25437;-63
2023/03/16 10:33:17;;;;;;;6.45;3.12;;;;;;;10.44;43.94;100805.63;1859961;76;25585;-61
2023/03/16 10:36:02;;;;;;;7.92;3.52;;;;;;;10.22;43.04;100798.66;1865217;76;27884;-62
2023/03/16 10:38:55;;;;;;;8.38;4.05;;;;;;;9.77;42.85;100800.35;1865451;76;25478;-62
2023/03/16 10:41:28;;;;;;;6.85;4.12;;;;;;;9.35;43.37;100800.63;1865519;76;25603;-63
2023/03/16 10:44:07;;;;;;;8.25;4.00;;;;;;;9.02;43.89;100798.29;1864388;76;25523;-63
2023/03/16 10:46:39;;;;;;;5.78;3.20;;;;;;;8.90;44.91;100800.81;1864569;76;25596;-63
2023/03/16 10:49:28;;;;;;;6.60;4.00;;;;;;;9.34;45.34;100797.11;1865206;76;27539;-63
2023/03/16 10:51:58;;;;;;;9.05;4.40;;;;;;;9.29;44.13;100798.52;1865598;76;25493;-62
2023/03/16 10:54:30;;;;;;;10.63;4.97;;;;;;;9.03;43.85;100797.20;1865443;76;25556;-52
2023/03/16 10:56:59;;;;;;;12.43;6.17;;;;;;;8.78;43.98;100796.36;1865486;76;25531;-51
2023/03/16 10:59:33;;;;;;;11.18;5.22;;;;;;;8.56;43.96;100799.52;1848578;76;25452;-52
2023/03/16 11:02:18;;;;;;;12.18;5.53;;;;;;;8.84;46.47;100790.39;1865506;76;28244;-49
2023/03/16 11:04:46;;;;;;;13.55;6.28;;;;;;;9.97;47.49;100793.88;1848529;76;25400;-50
2023/03/16 11:07:22;;;;;;;17.12;10.10;;;;;;;11.18;46.03;100784.55;1865492;76;25370;-56
2023/03/16 11:09:48;;;;;;;60.70;55.98;;;;;;;12.45;45.11;100788.06;1865390;76;25922;-57
2023/03/16 11:12:27;;;;;;;10.70;4.53;;;;;;;13.53;41.93;100775.11;1865549;76;25433;-56
2023/03/16 11:14:55;;;;;;;11.22;5.67;;;;;;;14.10;39.70;100795.17;1848905;76;27464;-57
2023/03/16 11:17:40;;;;;;;9.00;4.72;;;;;;;14.18;37.75;100792.45;1848817;76;25674;-55
2023/03/16 11:20:19;;;;;;;7.78;4.20;;;;;;;14.17;36.24;100785.97;1865518;76;25454;-53
2023/03/16 11:22:50;;;;;;;7.53;5.37;;;;;;;13.55;37.70;100772.08;1865148;76;25604;-50
2023/03/16 11:25:29;;;;;;;8.55;4.50;;;;;;;12.97;36.77;100782.89;1865552;76;25394;-57
2023/03/16 11:28:11;;;;;;;12.73;11.48;;;;;;;12.22;37.18;100782.61;1865502;76;27528;-57
2023/03/16 11:30:52;;;;;;;9.63;4.78;;;;;;;11.52;37.79;100781.97;1865456;76;25536;-58
2023/03/16 11:33:25;;;;;;;81.32;75.72;;;;;;;11.09;39.13;100786.36;1864504;75;25379;-57
2023/03/16 11:35:54;;;;;;;;;;;;;;;10.86;40.10;100788.12;1861754;76;25419;-56
2023/03/16 11:38:39;;;;;;;10.13;4.92;;;;;;;10.65;40.15;100783.64;1859123;76;25537;-53
2023/03/16 11:41:20;;;;;;;82.27;76.50;;;;;;;10.37;40.56;100786.28;1859319;76;28086;-58
2023/03/16 11:43:56;;;;;;;83.80;78.02;;;;;;;10.29;41.23;100785.00;1857903;76;25368;-58
2023/03/16 11:46:59;;;;;;;81.85;76.22;;;;;;;10.25;40.99;100780.50;1858822;76;25597;-58
2023/03/16 11:49:36;;;;;;;81.63;76.00;;;;;;;10.15;41.51;100780.10;1859053;77;25891;-56
2023/03/16 11:52:22;;;;;;;69.77;64.90;;;;;;;9.99;41.27;100775.45;1859201;76;25572;-58
2023/03/16 11:55:02;;;;;;;13.83;10.68;;;;;;;9.77;41.14;100785.50;1859101;77;28442;-58
2023/03/16 11:57:46;;;;;;;;;;;;;;;9.50;41.21;100791.00;1861830;76;25811;-56
2023/03/16 12:00:52;;;;;;;27.05;24.77;;;;;;;9.18;41.36;100784.08;1859121;77;25366;-58
2023/03/16 12:03:35;;;;;;;5.85;3.22;;;;;;;8.86;41.91;100783.61;1859077;76;25655;-58
2023/03/16 12:06:31;;;;;;;31.45;28.77;;;;;;;8.61;42.15;100784.64;1808854;79;25509;-55
2023/03/16 12:09:14;;;;;;;79.87;74.17;;;;;;;8.45;42.29;100780.49;1808928;79;28582;-57
2023/03/16 12:11:56;;;;;;;80.95;75.30;;;;;;;4.77;42.57;100243.38;1808183;79;25851;-60
2023/03/16 12:14:31;;;;;;;83.30;77.58;;;;;;;8.05;43.16;100783.16;1808796;79;25636;-58
2023/03/16 12:17:16;;;;;;;80.87;74.60;;;;;;;7.85;43.45;100790.30;1763802;79;25561;-60
2023/03/16 12:20:22;;;;;;;85.00;79.00;;;;;;;7.71;43.61;100786.59;1808991;79;25531;-59
2023/03/16 12:22:57;;;;;;;10.93;10.40;;;;;;;7.53;43.99;100788.03;1809040;79;27543;-56
2023/03/16 13:44:46;;;;;;;10.88;4.00;;;;;;;7.28;48.52;100826.06;1839912;77;34750;-63
2023/03/16 13:47:17;;;;;;;14.20;4.33;;;;;;;7.20;47.75;100821.27;1747900;82;25536;-59
2023/03/16 13:49:57;;;;;;;8.30;3.50;;;;;;;7.14;47.85;100824.23;1745877;80;28092;-61
2023/03/16 13:52:33;;;;;;;10.35;4.37;;;;;;;7.18;48.32;100822.59;1748029;82;25593;-61
2023/03/16 13:55:06;;;;;;;8.53;3.77;;;;;;;7.23;48.33;100832.00;1778748;80;25463;-58
2023/03/16 13:57:40;;;;;;;10.15;3.80;;;;;;;7.22;47.67;100823.66;1716338;82;25496;-61
2023/03/16 14:00:25;;;;;;;12.18;4.25;;;;;;;7.21;47.83;100826.09;1747911;82;25575;-62
2023/03/16 14:02:57;;;;;;;11.95;3.67;;;;;;;7.19;48.00;100826.36;1747842;82;27649;-62
2023/03/16 14:05:32;;;;;;;12.58;4.17;;;;;;;7.19;48.15;100830.41;1747854;82;25617;-61
2023/03/16 14:08:03;;;;;;;11.00;4.95;;;;;;;7.19;48.24;100825.02;1747877;82;25573;-63
2023/03/16 14:10:36;;;;;;;8.75;3.98;;;;;;;7.22;48.40;100829.86;1747803;82;25608;-61
2023/03/16 14:13:31;;;;;;;9.15;3.95;;;;;;;7.22;48.38;100823.13;1747857;82;25602;-62
2023/03/16 14:16:02;;;;;;;8.93;3.50;;;;;;;7.21;48.19;100828.78;1747731;82;27635;-61
2023/03/16 14:18:42;;;;;;;10.48;4.00;;;;;;;7.15;48.19;100825.31;1745777;82;25657;-61
2023/03/16 14:21:22;;;;;;;9.68;4.00;;;;;;;7.11;48.58;100826.37;1747860;82;25483;-61
2023/03/16 14:23:54;;;;;;;9.68;4.62;;;;;;;7.14;48.78;100827.72;1747804;82;25568;-60
2023/03/16 14:26:21;;;;;;;13.32;4.62;;;;;;;7.15;48.87;100824.48;1747888;82;25408;-61
2023/03/16 14:29:02;;;;;;;11.60;4.60;;;;;;;7.14;49.20;100824.23;1716393;82;27586;-60
2023/03/16 14:31:37;;;;;;;13.78;5.20;;;;;;;7.17;49.40;100828.53;1741309;82;25569;-61
2023/03/16 14:34:25;;;;;;;13.70;4.83;;;;;;;7.22;49.46;100831.73;1747866;82;25556;-56
2023/03/16 14:36:52;;;;;;;12.43;4.12;;;;;;;7.24;49.53;100828.25;1748031;82;25469;-55
2023/03/16 14:39:23;;;;;;;9.83;4.20;;;;;;;7.27;49.05;100830.37;1716453;82;25627;-58
2023/03/16 14:41:52;;;;;;;16.77;4.33;;;;;;;7.25;48.98;100828.49;1715740;82;27515;-57
2023/03/16 14:44:27;;;;;;;16.75;5.35;;;;;;;7.24;48.84;100833.08;1743183;82;25465;-51
2023/03/16 14:46:58;;;;;;;15.78;5.30;;;;;;;7.22;48.72;100831.73;1780439;79;25511;-53
2023/03/16 14:49:35;;;;;;;11.70;4.95;;;;;;;7.17;48.65;100831.22;1780427;79;25633;-54
2023/03/16 14:52:24;;;;;;;20.50;5.17;;;;;;;7.13;48.69;100838.75;1810143;79;25644;-58
2023/03/16 14:54:51;;;;;;;9.70;4.25;;;;;;;7.07;48.84;100833.93;1811271;79;27253;-52
2023/03/16 14:57:18;;;;;;;11.18;4.45;;;;;;;7.06;48.93;100835.80;1741049;82;25588;-54
2023/03/16 14:59:45;;;;;;;18.98;5.15;;;;;;;7.05;48.97;100838.23;1810503;79;25493;-56
2023/03/16 15:02:23;;;;;;;11.83;4.33;;;;;;;7.02;48.98;100836.63;1810813;79;25535;-54
2023/03/16 15:04:53;;;;;;;7.77;4.13;;;;;;;7.00;48.74;100839.59;1811018;79;25380;-52
2023/03/16 15:07:33;;;;;;;14.60;4.85;;;;;;;7.01;48.75;100845.77;1810974;79;27504;-57
2023/03/16 15:10:17;;;;;;;9.68;3.95;;;;;;;6.98;48.76;100842.27;1810751;79;25375;-57
2023/03/16 15:12:49;;;;;;;11.28;4.37;;;;;;;6.96;48.79;100843.08;1740565;82;25405;-59
2023/03/16 15:15:21;;;;;;;13.38;4.47;;;;;;;6.91;48.82;100850.09;1739912;82;25923;-60
2023/03/16 15:17:52;;;;;;;11.45;4.50;;;;;;;6.87;48.68;100847.66;1740701;81;25643;-56
2023/03/16 15:20:24;;;;;;;13.38;5.45;;;;;;;6.82;48.85;100848.21;1779667;79;27561;-58
2023/03/16 15:22:52;;;;;;;14.75;4.85;;;;;;;6.77;48.92;100850.90;1810167;78;25432;-57
2023/03/16 15:25:36;;;;;;;13.20;5.17;;;;;;;6.73;48.99;100856.02;1779984;79;25451;-57
2023/03/16 15:28:11;;;;;;;16.32;6.00;;;;;;;6.68;48.91;100856.02;1810756;79;25614;-57
2023/03/16 15:30:39;;;;;;;14.55;6.05;;;;;;;6.62;48.93;100851.70;1810342;79;25452;-54
2023/03/16 15:33:07;;;;;;;13.13;6.37;;;;;;;6.55;48.85;100856.00;1810722;79;28085;-57
2023/03/16 15:35:35;;;;;;;28.65;11.73;;;;;;;6.49;49.06;100851.71;1810567;79;25807;-56
2023/03/16 15:38:13;;;;;;;38.38;17.50;;;;;;;6.43;49.10;100854.91;1810596;79;25209;-59
2023/03/16 15:40:44;;;;;;;28.45;13.25;;;;;;;6.41;49.24;100856.27;1803136;79;25483;-58
2023/03/16 15:43:18;;;;;;;22.85;8.28;;;;;;;6.41;49.50;100862.44;1810849;79;25542;-61
2023/03/16 15:45:47;;;;;;;39.05;18.67;;;;;;;6.41;49.39;100855.72;1810839;79;27522;-58
2023/03/16 15:48:16;;;;;;;36.28;17.27;;;;;;;6.42;49.47;100856.52;1810923;79;25710;-54
2023/03/16 15:50:56;;;;;;;18.27;7.00;;;;;;;6.47;49.58;100862.72;1720516;82;25479;-55
2023/03/16 15:53:43;;;;;;;17.37;4.40;;;;;;;6.45;49.60;100863.53;1810436;79;25558;-54
2023/03/16 15:56:15;;;;;;;7.95;3.25;;;;;;;6.40;49.20;100869.42;1810858;79;25529;-53
2023/03/16 15:58:45;;;;;;;8.80;2.42;;;;;;;6.27;49.50;100876.92;1740809;82;27684;-59
2023/03/16 16:01:25;;;;;;;9.93;3.12;;;;;;;6.17;49.87;100873.67;1810886;79;25529;-56
2023/03/16 16:03:54;;;;;;;14.18;4.03;;;;;;;6.11;50.17;100881.47;1788027;79;25459;-56
2023/03/16 16:06:23;;;;;;;9.20;4.08;;;;;;;6.06;50.50;100880.63;1741137;82;25414;-58
2023/03/16 16:08:51;;;;;;;13.05;3.70;;;;;;;6.02;50.93;100883.58;1810134;79;25609;-59
2023/03/16 16:11:27;;;;;;;12.78;4.15;;;;;;;5.96;51.22;100890.27;1810596;79;27484;-54
2023/03/16 16:13:58;;;;;;;20.77;8.45;;;;;;;5.93;51.46;100890.77;1740773;82;25541;-54
2023/03/16 16:16:28;;;;;;;15.18;5.53;;;;;;;5.90;51.32;100891.28;1787804;78;25563;-56
2023/03/16 16:18:56;;;;;;;11.88;5.15;;;;;;;5.87;51.67;100881.61;1810834;79;25727;-58
2023/03/16 16:21:29;;;;;;;9.53;3.98;;;;;;;5.84;51.82;100890.18;1810851;79;25585;-56
2023/03/16 16:23:57;;;;;;;11.50;4.53;;;;;;;5.78;51.88;100893.39;1810870;79;27583;-56
2023/03/16 16:26:33;;;;;;;8.23;4.03;;;;;;;5.73;52.04;100894.70;1810731;79;25877;-57
2023/03/16 16:29:13;;;;;;;11.35;5.10;;;;;;;5.66;52.19;100898.97;1740846;82;25467;-59
2023/03/16 16:31:41;;;;;;;16.87;5.65;;;;;;;5.58;52.35;100897.60;1778833;80;34844;-57
2023/03/16 16:34:20;;;;;;;17.75;5.72;;;;;;;5.47;52.50;100901.83;1711728;83;25624;-55
2023/03/16 16:36:49;;;;;;;10.60;5.03;;;;;;;5.36;52.69;100909.81;1778857;80;27511;-55
2023/03/16 16:39:18;;;;;;;13.22;4.97;;;;;;;5.23;52.82;100908.92;1778730;80;25387;-56
2023/03/16 16:41:48;;;;;;;9.60;4.85;;;;;;;5.12;52.95;100916.61;1779024;80;25401;-54
2023/03/16 16:44:26;;;;;;;11.45;4.42;;;;;;;5.01;53.34;100916.53;1681663;85;26537;-53
2023/03/16 16:46:54;;;;;;;11.22;4.55;;;;;;;4.88;53.42;100915.61;1758100;81;25638;-53
2023/03/16 16:49:27;;;;;;;12.90;5.08;;;;;;;4.76;53.65;100917.66;1757247;81;27487;-60
2023/03/16 16:51:53;;;;;;;14.90;4.92;;;;;;;4.65;54.01;100920.25;1756786;81;25868;-55
2023/03/16 16:54:27;;;;;;;16.27;5.42;;;;;;;4.55;54.39;100927.39;1757248;81;25647;-56
2023/03/16 16:56:56;;;;;;;13.08;5.62;;;;;;;4.43;54.52;100929.67;1757510;81;26013;-58
2023/03/16 16:59:27;;;;;;;13.90;5.47;;;;;;;4.32;54.92;100927.14;1756744;81;25834;-56
2023/03/16 17:01:56;;;;;;;10.90;5.30;;;;;;;4.22;55.06;100924.64;1737706;81;26396;-57
2023/03/16 17:04:28;;;;;;;6.37;3.52;;;;;;;4.11;55.17;100933.60;1758415;81;25455;-57
2023/03/16 17:07:00;;;;;;;21.02;9.38;;;;;;;3.98;55.59;100928.62;1728308;83;25431;-52
2023/03/16 17:09:30;;;;;;;29.63;12.80;;;;;;;3.89;55.52;100937.61;1728267;82;25482;-53
2023/03/16 17:12:00;;;;;;;28.15;10.78;;;;;;;3.78;56.09;100935.85;1728108;82;25574;-58
2023/03/16 17:14:30;;;;;;;19.48;7.62;;;;;;;3.67;56.41;100941.06;1709918;83;27518;-55
2023/03/16 17:17:00;;;;;;;17.50;7.67;;;;;;;3.55;56.65;100937.70;1728270;82;25573;-55
2023/03/16 17:19:28;;;;;;;14.38;6.67;;;;;;;3.44;56.77;100947.95;1728112;82;25397;-55
2023/03/16 17:21:57;;;;;;;14.35;6.35;;;;;;;3.33;56.95;100943.79;1728210;82;25609;-56
2023/03/16 17:24:25;;;;;;;14.83;7.33;;;;;;;3.22;57.15;100943.38;1727614;82;25575;-55
2023/03/16 17:26:58;;;;;;;19.55;7.47;;;;;;;3.12;57.52;100947.22;1709455;83;27998;-55
2023/03/16 17:29:31;;;;;;;73.15;67.62;;;;;;;3.02;57.70;100945.72;1728146;83;25387;-54
2023/03/16 17:32:06;;;;;;;84.50;78.35;;;;;;;2.91;58.17;100947.39;1728143;83;25429;-55
2023/03/16 17:34:35;;;;;;;87.33;80.62;;;;;;;2.82;58.26;100954.99;1728210;82;25696;-54
2023/03/16 17:37:04;;;;;;;82.80;76.22;;;;;;;2.71;58.67;100955.89;1728226;82;25630;-56
2023/03/16 17:39:34;;;;;;;;;;;;;;;2.60;58.95;100950.33;1684623;84;28277;-53
2023/03/16 17:42:06;;;;;;;90.25;83.20;;;;;;;2.53;59.29;100958.22;1694443;84;25590;-54
2023/03/16 17:44:47;;;;;;;89.97;82.60;;;;;;;2.42;59.44;100953.22;1690007;83;25648;-59
2023/03/16 17:47:22;;;;;;;89.97;83.05;;;;;;;2.35;59.61;100960.03;1711451;83;25632;-57
2023/03/16 17:49:54;;;;;;;89.25;82.12;;;;;;;2.26;59.83;100964.64;1683297;85;25423;-56
2023/03/16 17:52:24;;;;;;;84.50;77.60;;;;;;;2.15;59.96;100964.97;1686187;83;29691;-57
2023/03/16 17:54:54;;;;;;;90.67;83.35;;;;;;;2.04;60.03;100970.61;1711363;83;27328;-59
2023/03/16 17:57:32;;;;;;;2.17;2.10;;;;;;;1.93;60.24;100970.92;1711211;83;80738;-55
2023/03/16 18:00:05;;;;;;;22.00;11.45;;;;;;;;;;1711640;83;25600;-58
2023/03/16 18:02:54;;;;;;;26.05;12.73;;;;;;;;;;1711839;83;25443;-57
2023/03/16 18:05:29;;;;;;;30.17;14.07;;;;;;;;;;1691503;84;27378;-55
2023/03/16 18:08:12;;;;;;;29.25;13.03;;;;;;;;;;1747291;82;25457;-56
2023/03/16 18:10:43;;;;;;;46.40;18.42;;;;;;;;;;1747897;82;25379;-57
2023/03/16 18:13:26;;;;;;;31.80;17.40;;;;;;;;;;1747953;82;25552;-53
2023/03/16 18:15:56;;;;;;;34.30;17.48;;;;;;;;;;1747960;82;25327;-55
2023/03/16 18:18:38;;;;;;;40.70;19.67;;;;;;;;;;1747997;82;27382;-55
2023/03/16 18:21:10;;;;;;;39.78;19.67;;;;;;;;;;1747903;82;25366;-56
2023/03/16 18:23:38;;;;;;;38.02;20.55;;;;;;;;;;1746559;81;25354;-58
2023/03/16 18:26:10;;;;;;;34.90;20.00;;;;;;;;;;1747915;81;26274;-56
2023/03/16 18:28:40;;;;;;;28.98;16.65;;;;;;;;;;1748009;82;25374;-57
2023/03/16 18:31:17;;;;;;;32.17;17.02;;;;;;;;;;1748273;82;27375;-57
2023/03/16 18:33:48;;;;;;;35.03;18.27;;;;;;;;;;1747393;81;25484;-57
2023/03/16 18:36:25;;;;;;;44.20;22.02;;;;;;;;;;1748133;81;25448;-55
2023/03/16 18:38:56;;;;;;;35.38;18.62;;;;;;;;;;1742069;81;26130;-57
2023/03/16 18:41:36;;;;;;;38.28;17.55;;;;;;;;;;1747916;82;25513;-59
2023/03/16 18:44:04;;;;;;;46.42;21.42;;;;;;;;;;1745091;82;27368;-58
2023/03/16 18:46:35;;;;;;;48.00;21.25;;;;;;;;;;1733313;82;25511;-58
2023/03/16 18:49:06;;;;;;;38.42;19.73;;;;;;;;;;1733478;82;25502;-61
2023/03/16 18:51:35;;;;;;;55.85;49.20;;;;;;;;;;1733417;82;26658;-59
2023/03/16 18:54:02;;;;;;;49.60;43.83;;;;;;;;;;1733231;82;25367;-60
2023/03/16 18:56:29;;;;;;;35.40;15.93;;;;;;;;;;1737248;82;27433;-61
2023/03/16 18:58:57;;;;;;;97.27;88.37;;;;;;;;;;1733056;82;25387;-60
2023/03/16 19:01:27;;;;;;;97.15;88.50;;;;;;;;;;1733137;82;25540;-60
2023/03/16 19:03:58;;;;;;;92.35;83.95;;;;;;;;;;1733135;82;25618;-60
2023/03/16 19:06:30;;;;;;;43.48;38.78;;;;;;;;;;1733205;82;25122;-60
2023/03/16 19:09:03;;;;;;;31.48;20.48;;;;;;;;;;1711983;82;27985;-59
2023/03/16 19:11:34;;;;;;;78.97;70.85;;;;;;;;;;1733181;82;25497;-59
2023/03/16 19:14:01;;;;;;;40.40;18.07;;;;;;;;;;1733188;82;25429;-61
2023/03/16 19:16:28;;;;;;;102.42;92.60;;;;;;;;;;1732989;82;25562;-60
2023/03/16 19:18:55;;;;;;;101.97;92.15;;;;;;;;;;1733093;82;25371;-60
2023/03/16 19:21:22;;;;;;;104.58;94.22;;;;;;;;;;1733040;82;27674;-61
2023/03/16 19:23:59;;;;;;;104.20;94.25;;;;;;;;;;1711583;82;25706;-59
2023/03/16 19:26:30;;;;;;;63.75;52.55;;;;;;;;;;1733169;82;25439;-59
2023/03/16 19:28:57;;;;;;;53.28;24.40;;;;;;;;;;1712376;82;26629;-57
2023/03/16 19:31:31;;;;;;;58.55;25.50;;;;;;;;;;1733123;82;25497;-58
2023/03/16 19:33:58;;;;;;;52.73;27.52;;;;;;;;;;1732979;82;27449;-60
2023/03/16 19:36:31;;;;;;;57.15;25.97;;;;;;;;;;1733011;82;25339;-57
2023/03/16 19:38:58;;;;;;;95.70;71.07;;;;;;;;;;1733003;82;25512;-58
2023/03/16 19:41:29;;;;;;;70.37;57.30;;;;;;;;;;1732876;82;25593;-61
2023/03/16 19:44:02;;;;;;;79.77;69.40;;;;;;;;;;1732962;82;25366;-58
2023/03/16 19:46:33;;;;;;;109.48;98.07;;;;;;;;;;1745621;81;28003;-58
2023/03/16 19:49:00;;;;;;;104.53;94.22;;;;;;;;;;1747856;82;25371;-59
2023/03/16 19:51:28;;;;;;;51.13;26.02;;;;;;;;;;1747954;81;25379;-58
2023/03/16 19:53:57;;;;;;;52.70;26.95;;;;;;;;;;1748214;82;25599;-60
2023/03/16 19:56:24;;;;;;;57.50;28.62;;;;;;;;;;1748069;82;25568;-57
2023/03/16 19:58:55;;;;;;;80.55;72.27;;;;;;;;;;1748204;82;27326;-60
2023/03/16 20:01:28;;;;;;;82.70;73.78;;;;;;;;;;1748040;82;25492;-58
2023/03/16 20:03:55;;;;;;;121.33;103.62;;;;;;;;;;1747977;81;25327;-56
2023/03/16 20:06:24;;;;;;;84.58;75.72;;;;;;;;;;1748063;81;25532;-59
2023/03/16 20:08:51;;;;;;;75.50;34.35;;;;;;;;;;1747993;82;25283;-59
2023/03/16 20:11:29;;;;;;;79.92;33.78;;;;;;;;;;1747974;82;27395;-58
2023/03/16 20:13:58;;;;;;;61.42;28.07;;;;;;;;;;1748122;81;25439;-55
2023/03/16 20:16:32;;;;;;;91.00;34.78;;;;;;;;;;1720393;82;25296;-56
2023/03/16 20:19:19;;;;;;;113.85;92.35;;;;;;;;;;1748531;81;25501;-55
2023/03/16 20:21:48;;;;;;;94.13;79.90;;;;;;;;;;1748124;82;25290;-55
2023/03/16 20:24:17;;;;;;;128.20;107.55;;;;;;;;;;1747989;81;27375;-55
2023/03/16 20:26:45;;;;;;;56.55;23.95;;;;;;;;;;1748050;81;32796;-56
2023/03/16 20:29:31;;;;;;;119.02;101.78;;;;;;;;;;1748010;81;25374;-58
2023/03/16 20:32:00;;;;;;;84.80;35.95;;;;;;;;;;1750820;81;25567;-57
2023/03/16 20:34:31;;;;;;;84.22;38.38;;;;;;;;;;1718656;82;25550;-56
2023/03/16 20:37:00;;;;;;;112.50;80.35;;;;;;;;;;1750838;82;27435;-55
2023/03/16 20:39:27;;;;;;;121.22;71.28;;;;;;;;;;1750754;82;25588;-55
2023/03/16 20:41:54;;;;;;;114.88;56.42;;;;;;;;;;1750946;81;25512;-60
2023/03/16 20:44:24;;;;;;;106.63;46.13;;;;;;;;;;1748576;82;27722;-55
2023/03/16 20:46:51;;;;;;;106.83;51.77;;;;;;;;;;1748039;81;25487;-57
2023/03/16 20:49:25;;;;;;;90.32;45.33;;;;;;;;;;1747891;81;29601;-55
2023/03/16 20:51:54;;;;;;;81.50;46.75;;;;;;;;;;1747805;81;25464;-52
2023/03/16 20:54:22;;;;;;;78.85;47.08;;;;;;;;;;1747923;82;25480;-58
2023/03/16 20:56:49;;;;;;;121.07;102.12;;;;;;;;;;1747885;82;25511;-57
2023/03/16 20:59:21;;;;;;;108.22;96.97;;;;;;;;;;1747963;82;25326;-59